Time;durP1;ratioP1;P1;durP2;ratioP2;P2;SDS_P1;SDS_P2;PMS_P1;PMS_P2;Temp;Humidity;BMP_temperature;BMP_pressure;BME280_temperature;BME280_humidity;BME280_pressure;Samples;Min_cycle;Max_cycle;Signal;HPM_P1;HPM_P2
2021/09/18 00:00:43;;;;;;;20.23;8.00;;;;;;;;;;5022997;28;20081;-61
2021/09/18 00:03:10;;;;;;;10.93;7.40;;;;;;;;;;5020529;28;20053;-61
2021/09/18 00:05:37;;;;;;;10.10;6.85;;;;;;;;;;5028529;28;20046;-61
2021/09/18 00:08:03;;;;;;;12.15;7.15;;;;;;;;;;5018217;28;20093;-61
2021/09/18 00:10:31;;;;;;;;;;;;;;;;;;5027344;28;20073;-61
2021/09/18 00:12:57;;;;;;;16.42;7.00;;;;;;;;;;5023411;28;19956;-61
2021/09/18 00:15:24;;;;;;;15.75;7.30;;;;;;;;;;5029071;28;20085;-61
2021/09/18 00:17:50;;;;;;;14.55;7.05;;;;;;;;;;5022245;28;20050;-61
2021/09/18 00:20:17;;;;;;;13.40;7.18;;;;;;;;;;5022665;28;20134;-61
2021/09/18 00:22:43;;;;;;;15.88;7.68;;;;;;;;;;5029521;28;20128;-61
2021/09/18 00:25:10;;;;;;;13.30;7.33;;;;;;;;;;5017903;28;20124;-61
2021/09/18 00:27:37;;;;;;;10.88;7.45;;;;;;;;;;5021204;28;20132;-62
2021/09/18 00:30:04;;;;;;;12.32;7.72;;;;;;;;;;5023481;28;20148;-61
2021/09/18 00:32:30;;;;;;;14.73;7.35;;;;;;;;;;5018810;28;20128;-61
2021/09/18 00:34:58;;;;;;;16.10;7.03;;;;;;;;;;5026842;28;20137;-61
2021/09/18 00:37:24;;;;;;;13.75;7.38;;;;;;;;;;5022014;28;20067;-61
2021/09/18 00:39:52;;;;;;;;;;;;;;;;;;5029311;28;20160;-61
2021/09/18 00:42:18;;;;;;;12.23;7.10;;;;;;;;;;5023893;28;19984;-61
2021/09/18 00:44:45;;;;;;;10.27;6.57;;;;;;;;;;5022659;28;20084;-61
2021/09/18 00:47:11;;;;;;;12.03;7.13;;;;;;;;;;5024950;28;20090;-61
2021/09/18 00:49:38;;;;;;;14.30;7.45;;;;;;;;;;5028947;28;20136;-61
2021/09/18 00:52:04;;;;;;;10.05;7.32;;;;;;;;;;5025719;28;20085;-61
2021/09/18 00:54:31;;;;;;;;;;;;;;;;;;5020036;28;20089;-61
2021/09/18 00:56:58;;;;;;;11.85;6.90;;;;;;;;;;5023373;28;19971;-61
2021/09/18 00:59:25;;;;;;;12.80;7.72;;;;;;;;;;5023475;28;20132;-61
2021/09/18 01:01:52;;;;;;;13.32;7.57;;;;;;;;;;5032045;28;20081;-61
2021/09/18 01:04:19;;;;;;;8.40;7.20;;;;;;;;;;5024079;28;20050;-61
2021/09/18 01:06:45;;;;;;;12.15;7.32;;;;;;;;;;5029713;28;20296;-61
2021/09/18 01:09:13;;;;;;;12.37;7.50;;;;;;;;;;5017739;28;20525;-61
2021/09/18 01:11:42;;;;;;;12.40;7.28;;;;;;;;;;5024775;28;20969;-61
2021/09/18 01:14:08;;;;;;;10.27;6.65;;;;;;;;;;5021491;28;20053;-61
2021/09/18 01:16:36;;;;;;;15.55;7.70;;;;;;;;;;5019413;28;20049;-61
2021/09/18 01:19:02;;;;;;;11.48;6.90;;;;;;;;;;5019633;28;20057;-61
2021/09/18 01:21:29;;;;;;;15.43;7.57;;;;;;;;;;5019536;28;20081;-61
2021/09/18 01:23:56;;;;;;;11.02;7.22;;;;;;;;;;5025262;28;20087;-61
2021/09/18 01:26:29;;;;;;;11.98;7.18;;;;;;;;;;5016427;28;20056;-61
2021/09/18 01:28:56;;;;;;;13.43;7.80;;;;;;;;;;5025873;28;20494;-61
2021/09/18 01:31:23;;;;;;;13.82;7.70;;;;;;;;;;5020471;28;20493;-61
2021/09/18 01:33:50;;;;;;;19.30;7.70;;;;;;;;;;5020747;28;20748;-61
2021/09/18 01:36:18;;;;;;;13.00;7.30;;;;;;;;;;5027844;28;20079;-61
2021/09/18 01:38:44;;;;;;;13.73;6.93;;;;;;;;;;5022930;28;20046;-61
2021/09/18 01:41:11;;;;;;;16.23;7.70;;;;;;;;;;5025178;28;20049;-61
2021/09/18 01:43:38;;;;;;;16.87;6.80;;;;;;;;;;5026055;28;20051;-62
2021/09/18 01:46:04;;;;;;;13.00;7.45;;;;;;;;;;5025106;28;20046;-61
2021/09/18 01:48:31;;;;;;;13.60;7.03;;;;;;;;;;5023436;28;20488;-61
2021/09/18 01:51:01;;;;;;;9.82;6.50;;;;;;;;;;5027418;28;20046;-61
2021/09/18 01:53:29;;;;;;;9.75;6.97;;;;;;;;;;5019769;28;20054;-61
2021/09/18 01:55:56;;;;;;;10.07;6.85;;;;;;;;;;5021779;28;20050;-61
2021/09/18 01:58:23;;;;;;;13.35;6.88;;;;;;;;;;5018156;28;20058;-61
2021/09/18 02:00:54;;;;;;;9.80;6.85;;;;;;;;;;5022845;28;20050;-61
2021/09/18 02:03:21;;;;;;;9.98;7.28;;;;;;;;;;5020652;28;20054;-62
2021/09/18 02:05:48;;;;;;;;;;;;;;;;;;5025597;28;20506;-62
2021/09/18 02:08:15;;;;;;;13.35;7.32;;;;;;;;;;5018871;28;20347;-61
2021/09/18 02:10:41;;;;;;;12.60;7.03;;;;;;;;;;5019853;28;20402;-61
2021/09/18 02:13:09;;;;;;;10.30;6.60;;;;;;;;;;5019527;28;20445;-61
2021/09/18 02:15:37;;;;;;;8.65;6.68;;;;;;;;;;5022142;28;20056;-64
2021/09/18 02:18:07;;;;;;;13.18;6.82;;;;;;;;;;5022111;28;20661;-61
2021/09/18 02:20:35;;;;;;;9.60;6.80;;;;;;;;;;5027091;28;20080;-61
2021/09/18 02:23:01;;;;;;;13.75;6.47;;;;;;;;;;5026245;28;20044;-61
2021/09/18 02:25:28;;;;;;;11.25;6.78;;;;;;;;;;5018254;28;20048;-61
2021/09/18 02:27:55;;;;;;;12.02;7.47;;;;;;;;;;5028087;28;20128;-62
2021/09/18 02:30:23;;;;;;;12.73;7.00;;;;;;;;;;5021536;28;20049;-61
2021/09/18 02:32:50;;;;;;;10.70;7.15;;;;;;;;;;5022771;28;20107;-61
2021/09/18 02:35:18;;;;;;;11.73;6.80;;;;;;;;;;5018235;28;20050;-61
2021/09/18 02:37:44;;;;;;;;;;;;;;;;;;5022040;28;20046;-61
2021/09/18 02:40:12;;;;;;;10.80;6.78;;;;;;;;;;5027230;28;19921;-61
2021/09/18 02:42:40;;;;;;;11.77;6.75;;;;;;;;;;5022228;28;20046;-61
2021/09/18 02:45:06;;;;;;;;;;;;;;;;;;5021497;28;20057;-61
2021/09/18 02:47:33;;;;;;;10.23;6.70;;;;;;;;;;5020263;28;19936;-61
2021/09/18 02:50:00;;;;;;;15.60;7.07;;;;;;;;;;5017755;28;20049;-61
2021/09/18 02:52:26;;;;;;;16.50;7.38;;;;;;;;;;5021003;28;20050;-61
2021/09/18 02:54:53;;;;;;;15.20;7.45;;;;;;;;;;5021912;28;20399;-61
2021/09/18 02:57:20;;;;;;;12.27;6.65;;;;;;;;;;5023353;28;20050;-61
2021/09/18 02:59:46;;;;;;;10.07;6.70;;;;;;;;;;5025096;28;20037;-61
2021/09/18 03:02:13;;;;;;;14.45;6.63;;;;;;;;;;5018316;28;20072;-61
2021/09/18 03:04:40;;;;;;;14.18;6.97;;;;;;;;;;5021424;28;20049;-61
2021/09/18 03:07:06;;;;;;;14.65;7.13;;;;;;;;;;5021033;28;20049;-61
2021/09/18 03:09:33;;;;;;;16.33;6.78;;;;;;;;;;5020560;28;20053;-61
2021/09/18 03:12:00;;;;;;;12.15;7.13;;;;;;;;;;5023140;28;20053;-61
2021/09/18 03:14:27;;;;;;;11.77;6.72;;;;;;;;;;5018419;28;20086;-61
2021/09/18 03:16:54;;;;;;;7.47;5.88;;;;;;;;;;5021355;28;20053;-62
2021/09/18 03:19:21;;;;;;;13.18;6.93;;;;;;;;;;5025984;28;20050;-61
2021/09/18 03:21:47;;;;;;;11.65;6.93;;;;;;;;;;5025269;28;20046;-62
2021/09/18 03:24:14;;;;;;;10.75;6.22;;;;;;;;;;5020555;28;20060;-61
2021/09/18 03:26:44;;;;;;;12.93;6.65;;;;;;;;;;5019216;28;20037;-62
2021/09/18 03:29:11;;;;;;;14.05;6.82;;;;;;;;;;5026691;28;20054;-62
2021/09/18 03:31:38;;;;;;;13.45;6.50;;;;;;;;;;5024934;28;20050;-62
2021/09/18 03:34:05;;;;;;;;;;;;;;;;;;5018667;28;20136;-62
2021/09/18 03:36:32;;;;;;;10.48;6.97;;;;;;;;;;5019188;28;19975;-62
2021/09/18 03:38:58;;;;;;;13.40;7.25;;;;;;;;;;5018955;28;20049;-61
2021/09/18 03:41:26;;;;;;;12.18;7.28;;;;;;;;;;5023282;28;20082;-61
2021/09/18 03:43:53;;;;;;;10.30;6.35;;;;;;;;;;5024873;28;20178;-61
2021/09/18 03:46:19;;;;;;;14.18;6.90;;;;;;;;;;5024478;28;20046;-61
2021/09/18 03:48:46;;;;;;;9.90;6.72;;;;;;;;;;5023170;28;20042;-61
2021/09/18 03:51:13;;;;;;;11.13;6.83;;;;;;;;;;5019246;28;20053;-62
2021/09/18 03:53:40;;;;;;;9.03;6.50;;;;;;;;;;5022621;28;20811;-61
2021/09/18 03:56:07;;;;;;;12.23;7.03;;;;;;;;;;5026021;28;20045;-61
2021/09/18 03:58:33;;;;;;;10.90;6.80;;;;;;;;;;5020070;28;20305;-62
2021/09/18 04:01:00;;;;;;;10.40;6.45;;;;;;;;;;5025650;28;20410;-61
2021/09/18 04:03:27;;;;;;;11.02;6.38;;;;;;;;;;5022636;28;20052;-61
2021/09/18 04:05:54;;;;;;;11.70;6.40;;;;;;;;;;5022471;28;20456;-61
2021/09/18 04:08:20;;;;;;;8.85;6.20;;;;;;;;;;5021864;28;20395;-62
2021/09/18 04:10:48;;;;;;;8.90;6.20;;;;;;;;;;5029056;28;20053;-61
2021/09/18 04:13:15;;;;;;;11.07;6.50;;;;;;;;;;5025052;28;20106;-62
2021/09/18 04:15:41;;;;;;;9.07;6.20;;;;;;;;;;5024242;28;20045;-61
2021/09/18 04:18:09;;;;;;;10.75;6.30;;;;;;;;;;5020795;28;20049;-61
2021/09/18 04:20:35;;;;;;;8.30;6.18;;;;;;;;;;5023401;28;20502;-62
2021/09/18 04:23:02;;;;;;;10.05;6.25;;;;;;;;;;5017882;28;20049;-62
2021/09/18 04:25:29;;;;;;;8.55;6.07;;;;;;;;;;5026776;28;20107;-61
2021/09/18 04:27:55;;;;;;;10.27;6.43;;;;;;;;;;5023504;28;20049;-62
2021/09/18 04:30:22;;;;;;;8.30;5.50;;;;;;;;;;5017586;28;20497;-61
2021/09/18 04:32:49;;;;;;;8.18;6.20;;;;;;;;;;5027158;28;20323;-61
2021/09/18 04:35:15;;;;;;;10.38;6.25;;;;;;;;;;5021745;28;20049;-61
2021/09/18 04:37:42;;;;;;;10.15;5.63;;;;;;;;;;5025834;28;20061;-62
2021/09/18 04:40:09;;;;;;;9.45;6.00;;;;;;;;;;5022552;28;20099;-61
2021/09/18 04:42:36;;;;;;;8.95;5.85;;;;;;;;;;5022134;28;20143;-61
2021/09/18 04:45:03;;;;;;;10.52;6.13;;;;;;;;;;5028544;28;20497;-61
2021/09/18 04:47:30;;;;;;;11.68;6.43;;;;;;;;;;5025587;28;20060;-61
2021/09/18 04:49:57;;;;;;;8.27;5.47;;;;;;;;;;5024227;28;20068;-62
2021/09/18 04:52:23;;;;;;;8.90;5.90;;;;;;;;;;5022868;28;20045;-62
2021/09/18 04:54:53;;;;;;;14.02;6.43;;;;;;;;;;5020729;28;20498;-61
2021/09/18 04:57:20;;;;;;;9.52;6.05;;;;;;;;;;5019453;28;20045;-61
2021/09/18 04:59:46;;;;;;;8.10;5.40;;;;;;;;;;5023140;28;20050;-61
2021/09/18 05:02:14;;;;;;;12.48;5.38;;;;;;;;;;5022363;28;20108;-62
2021/09/18 05:04:41;;;;;;;10.10;5.55;;;;;;;;;;5019232;28;20141;-61
2021/09/18 05:07:08;;;;;;;10.07;5.82;;;;;;;;;;5022415;28;20104;-61
2021/09/18 05:09:35;;;;;;;7.93;5.72;;;;;;;;;;5017370;28;20064;-61
2021/09/18 05:12:02;;;;;;;9.77;5.22;;;;;;;;;;5025384;28;20244;-62
2021/09/18 05:14:28;;;;;;;8.73;5.60;;;;;;;;;;5019338;28;20061;-61
2021/09/18 05:16:56;;;;;;;9.88;5.35;;;;;;;;;;5020706;28;20049;-61
2021/09/18 05:19:22;;;;;;;10.18;4.80;;;;;;;;;;5022994;28;20061;-61
2021/09/18 05:21:49;;;;;;;7.18;5.15;;;;;;;;;;5024062;28;20049;-61
2021/09/18 05:24:16;;;;;;;7.43;5.00;;;;;;;;;;5027077;28;20119;-61
2021/09/18 05:26:42;;;;;;;13.80;5.80;;;;;;;;;;5024127;28;20053;-61
2021/09/18 05:29:09;;;;;;;7.50;5.05;;;;;;;;;;5021005;28;20413;-61
2021/09/18 05:31:36;;;;;;;8.40;5.43;;;;;;;;;;5025507;28;20616;-61
2021/09/18 05:34:02;;;;;;;10.05;5.00;;;;;;;;;;5026447;28;20049;-61
2021/09/18 05:36:29;;;;;;;7.75;5.38;;;;;;;;;;5022559;28;20472;-61
2021/09/18 05:38:56;;;;;;;7.18;5.00;;;;;;;;;;5022509;28;20046;-61
2021/09/18 05:41:22;;;;;;;9.75;4.45;;;;;;;;;;5019241;28;20071;-61
2021/09/18 05:43:49;;;;;;;12.73;5.82;;;;;;;;;;5023979;28;20045;-61
2021/09/18 05:46:16;;;;;;;6.75;4.65;;;;;;;;;;5025015;28;20072;-61
2021/09/18 05:48:42;;;;;;;11.07;5.10;;;;;;;;;;5018653;28;20049;-61
2021/09/18 05:51:09;;;;;;;8.45;4.40;;;;;;;;;;5027178;28;20497;-61
2021/09/18 05:53:36;;;;;;;13.27;4.83;;;;;;;;;;5022477;28;20056;-61
2021/09/18 05:56:03;;;;;;;11.52;5.40;;;;;;;;;;5017894;28;20568;-61
2021/09/18 05:58:30;;;;;;;9.60;4.82;;;;;;;;;;5024656;28;20084;-61
2021/09/18 06:00:57;;;;;;;5.18;4.15;;;;;;;;;;5021631;28;20486;-61
2021/09/18 06:03:24;;;;;;;7.38;4.65;;;;;;;;;;5021098;28;20207;-61
2021/09/18 06:05:50;;;;;;;11.35;4.75;;;;;;;;;;5021194;28;20497;-61
2021/09/18 06:08:18;;;;;;;11.75;5.22;;;;;;;;;;5019867;28;20061;-61
2021/09/18 06:10:44;;;;;;;13.88;4.60;;;;;;;;;;5017992;28;20494;-61
2021/09/18 06:13:11;;;;;;;8.10;4.70;;;;;;;;;;5024389;28;20064;-61
2021/09/18 06:15:37;;;;;;;9.05;4.43;;;;;;;;;;5020906;28;20053;-61
2021/09/18 06:18:04;;;;;;;7.75;4.95;;;;;;;;;;5023292;28;20085;-61
2021/09/18 06:20:30;;;;;;;12.75;4.63;;;;;;;;;;5021536;28;20523;-61
2021/09/18 06:22:58;;;;;;;9.50;4.40;;;;;;;;;;5026891;28;20068;-61
2021/09/18 06:25:24;;;;;;;9.63;4.47;;;;;;;;;;5026625;28;20053;-61
2021/09/18 06:27:51;;;;;;;9.05;4.40;;;;;;;;;;5022242;28;20103;-61
2021/09/18 06:30:18;;;;;;;11.13;4.85;;;;;;;;;;5024935;28;20045;-61
2021/09/18 06:32:44;;;;;;;9.40;4.25;;;;;;;;;;5028964;28;20096;-62
2021/09/18 06:35:11;;;;;;;6.78;4.07;;;;;;;;;;5020125;28;20103;-62
2021/09/18 06:37:45;;;;;;;10.55;4.22;;;;;;;;;;5023762;28;20452;-61
2021/09/18 06:40:12;;;;;;;9.10;4.88;;;;;;;;;;5022177;28;20058;-61
2021/09/18 06:42:39;;;;;;;6.40;4.18;;;;;;;;;;5024120;28;20041;-61
2021/09/18 06:45:07;;;;;;;8.27;4.57;;;;;;;;;;5023263;28;20141;-61
2021/09/18 06:47:34;;;;;;;7.82;4.13;;;;;;;;;;5017186;28;20045;-61
2021/09/18 06:50:00;;;;;;;6.00;4.32;;;;;;;;;;5021292;28;20054;-62
2021/09/18 06:52:27;;;;;;;11.32;4.85;;;;;;;;;;5026984;28;20049;-62
2021/09/18 06:54:53;;;;;;;7.97;4.60;;;;;;;;;;5019126;28;20431;-61
2021/09/18 06:57:21;;;;;;;8.13;4.22;;;;;;;;;;5023053;28;20050;-61
2021/09/18 06:59:47;;;;;;;7.03;4.40;;;;;;;;;;5016370;28;20081;-61
2021/09/18 07:02:20;;;;;;;7.32;4.45;;;;;;;;;;5017917;28;20717;-61
2021/09/18 07:04:48;;;;;;;5.28;4.10;;;;;;;;;;5019569;28;20057;-61
2021/09/18 07:07:14;;;;;;;6.97;3.88;;;;;;;;;;5021730;28;20054;-61
2021/09/18 07:09:41;;;;;;;10.52;4.45;;;;;;;;;;5019616;28;20054;-62
2021/09/18 07:12:07;;;;;;;7.07;3.87;;;;;;;;;;5022216;28;20048;-61
2021/09/18 07:14:34;;;;;;;6.20;3.40;;;;;;;;;;5020377;28;20369;-62
2021/09/18 07:17:01;;;;;;;7.32;4.43;;;;;;;;;;5020545;28;20046;-61
2021/09/18 07:19:28;;;;;;;6.95;4.38;;;;;;;;;;5022498;28;20057;-61
2021/09/18 07:21:54;;;;;;;8.20;4.80;;;;;;;;;;5019730;28;20050;-61
2021/09/18 07:24:21;;;;;;;7.07;4.22;;;;;;;;;;5024976;28;20060;-62
2021/09/18 07:26:48;;;;;;;6.20;4.30;;;;;;;;;;5030568;28;20448;-61
2021/09/18 07:29:14;;;;;;;6.90;3.67;;;;;;;;;;5035165;28;20053;-62
2021/09/18 07:31:41;;;;;;;5.60;4.20;;;;;;;;;;5024192;28;20041;-61
2021/09/18 07:34:08;;;;;;;7.60;4.18;;;;;;;;;;5019415;28;20049;-61
2021/09/18 07:36:34;;;;;;;7.30;4.25;;;;;;;;;;5017237;28;20509;-61
2021/09/18 07:39:01;;;;;;;5.90;3.95;;;;;;;;;;5025923;28;20556;-62
2021/09/18 07:41:28;;;;;;;5.10;3.53;;;;;;;;;;5026988;28;20057;-62
2021/09/18 07:44:00;;;;;;;7.53;3.55;;;;;;;;;;5026513;28;20064;-62
2021/09/18 07:46:28;;;;;;;9.32;4.00;;;;;;;;;;5024986;28;20053;-61
2021/09/18 07:48:55;;;;;;;6.30;4.50;;;;;;;;;;5022908;28;20561;-61
2021/09/18 07:51:22;;;;;;;7.20;4.07;;;;;;;;;;5024220;28;20049;-62
2021/09/18 07:53:48;;;;;;;8.10;4.57;;;;;;;;;;5026437;28;20044;-61
2021/09/18 07:56:15;;;;;;;10.17;4.40;;;;;;;;;;5025215;28;20050;-62
2021/09/18 07:58:42;;;;;;;8.40;4.33;;;;;;;;;;5025639;28;20045;-62
2021/09/18 08:01:09;;;;;;;11.73;4.60;;;;;;;;;;5021285;28;20100;-62
2021/09/18 08:03:36;;;;;;;10.13;3.92;;;;;;;;;;5020129;28;20053;-62
2021/09/18 08:06:04;;;;;;;5.68;4.15;;;;;;;;;;5024777;28;20605;-61
2021/09/18 08:08:31;;;;;;;6.00;3.72;;;;;;;;;;5020266;28;20058;-62
2021/09/18 08:10:57;;;;;;;4.97;3.72;;;;;;;;;;5019006;28;20050;-61
2021/09/18 08:13:24;;;;;;;5.20;3.85;;;;;;;;;;5021517;28;20060;-62
2021/09/18 08:15:51;;;;;;;8.38;4.10;;;;;;;;;;5025045;28;20045;-62
2021/09/18 08:18:17;;;;;;;10.80;4.23;;;;;;;;;;5006262;28;20214;-61
2021/09/18 08:20:44;;;;;;;7.57;4.30;;;;;;;;;;5021805;28;20049;-61
2021/09/18 08:23:11;;;;;;;8.13;3.77;;;;;;;;;;5025960;28;20068;-61
2021/09/18 08:25:37;;;;;;;7.75;4.03;;;;;;;;;;5030845;28;20139;-62
2021/09/18 08:28:04;;;;;;;6.25;4.07;;;;;;;;;;5019727;28;20046;-61
2021/09/18 08:30:31;;;;;;;8.38;3.97;;;;;;;;;;5026356;28;20050;-61
2021/09/18 08:32:58;;;;;;;9.60;3.97;;;;;;;;;;5013769;28;20050;-62
2021/09/18 08:35:24;;;;;;;7.53;4.38;;;;;;;;;;5019142;28;20060;-62
2021/09/18 08:37:51;;;;;;;7.53;4.35;;;;;;;;;;5016788;28;20080;-61
2021/09/18 08:40:17;;;;;;;7.55;3.97;;;;;;;;;;5015819;28;20049;-61
2021/09/18 08:42:44;;;;;;;7.75;4.18;;;;;;;;;;5021922;28;20526;-61
2021/09/18 08:45:13;;;;;;;6.07;4.10;;;;;;;;;;5015372;28;20053;-61
2021/09/18 08:47:41;;;;;;;4.47;3.60;;;;;;;;;;5019275;28;20038;-62
2021/09/18 08:50:12;;;;;;;5.97;4.20;;;;;;;;;;5027685;28;20052;-62
2021/09/18 08:52:40;;;;;;;7.50;4.18;;;;;;;;;;5023568;28;20132;-62
2021/09/18 08:55:07;;;;;;;6.95;3.88;;;;;;;;;;5026847;28;20060;-61
2021/09/18 08:57:33;;;;;;;6.53;4.68;;;;;;;;;;5024907;28;20046;-61
2021/09/18 09:00:03;;;;;;;6.13;3.85;;;;;;;;;;5027968;28;20064;-61
2021/09/18 09:02:30;;;;;;;;;;;;;;;;;;5025411;28;20053;-62
2021/09/18 09:05:05;;;;;;;4.57;3.92;;;;;;;;;;5024264;28;20798;-61
2021/09/18 09:07:32;;;;;;;7.88;4.35;;;;;;;;;;5021899;28;20438;-63
2021/09/18 09:09:59;;;;;;;;;;;;;;;;;;5023248;28;20053;-61
2021/09/18 09:12:36;;;;;;;8.00;4.15;;;;;;;;;;5017346;28;19967;-61
2021/09/18 09:15:20;;;;;;;8.13;4.47;;;;;;;;;;5022535;28;20128;-62
2021/09/18 09:17:51;;;;;;;6.72;4.05;;;;;;;;;;5029639;28;20045;-62
2021/09/18 09:20:23;;;;;;;4.88;3.83;;;;;;;;;;5022104;28;20045;-61
2021/09/18 09:22:50;;;;;;;6.63;4.25;;;;;;;;;;5026135;28;20041;-61
2021/09/18 09:25:29;;;;;;;8.88;4.25;;;;;;;;;;5021510;28;20186;-62
2021/09/18 09:27:56;;;;;;;8.57;3.72;;;;;;;;;;5023415;28;20132;-61
2021/09/18 09:30:33;;;;;;;10.73;3.92;;;;;;;;;;5023711;28;20164;-61
2021/09/18 09:33:07;;;;;;;10.18;4.88;;;;;;;;;;5021100;28;20054;-62
2021/09/18 09:35:34;;;;;;;9.90;4.43;;;;;;;;;;5025810;28;20088;-62
2021/09/18 09:38:01;;;;;;;9.30;4.43;;;;;;;;;;5025647;28;20143;-61
2021/09/18 09:40:31;;;;;;;6.35;4.30;;;;;;;;;;5021130;28;20136;-61
2021/09/18 09:42:58;;;;;;;8.95;4.40;;;;;;;;;;5020951;28;20069;-61
2021/09/18 09:45:25;;;;;;;7.32;4.28;;;;;;;;;;5021490;28;20049;-62
2021/09/18 09:48:02;;;;;;;9.80;4.50;;;;;;;;;;5019531;28;20048;-61
2021/09/18 09:50:29;;;;;;;6.65;4.53;;;;;;;;;;5024001;28;20052;-61
2021/09/18 09:52:56;;;;;;;5.65;3.75;;;;;;;;;;5024360;28;20141;-61
2021/09/18 09:55:23;;;;;;;5.53;4.15;;;;;;;;;;5020600;28;20054;-61
2021/09/18 09:58:00;;;;;;;7.75;4.13;;;;;;;;;;5020368;28;20087;-61
2021/09/18 10:00:39;;;;;;;7.10;4.32;;;;;;;;;;5024887;28;20107;-61
2021/09/18 10:03:06;;;;;;;9.05;3.83;;;;;;;;;;5025951;28;20045;-61
2021/09/18 10:05:33;;;;;;;12.85;4.47;;;;;;;;;;5021824;28;20050;-61
2021/09/18 10:08:00;;;;;;;9.05;3.88;;;;;;;;;;5023552;28;20050;-61
2021/09/18 10:10:31;;;;;;;8.30;4.40;;;;;;;;;;5022911;28;20038;-61
2021/09/18 10:12:58;;;;;;;6.03;4.10;;;;;;;;;;5024972;28;20140;-61
2021/09/18 10:15:26;;;;;;;5.50;4.13;;;;;;;;;;5019837;28;20129;-61
2021/09/18 10:17:57;;;;;;;8.75;4.28;;;;;;;;;;5020662;28;20573;-62
2021/09/18 10:25:40;;;;;;;5.65;4.00;;;;;;;;;;5024439;28;20081;-62
2021/09/18 10:28:18;;;;;;;8.32;4.10;;;;;;;;;;5022666;28;20091;-61
2021/09/18 10:30:48;;;;;;;8.98;4.68;;;;;;;;;;5021573;28;20548;-61
2021/09/18 10:33:26;;;;;;;12.57;4.43;;;;;;;;;;5027713;28;20092;-61
2021/09/18 10:35:54;;;;;;;8.05;3.50;;;;;;;;;;5023152;28;20077;-61
2021/09/18 10:38:24;;;;;;;8.30;4.00;;;;;;;;;;5022074;28;20140;-61
2021/09/18 10:40:55;;;;;;;8.18;4.00;;;;;;;;;;5022307;28;20442;-61
2021/09/18 10:43:26;;;;;;;8.52;3.88;;;;;;;;;;5022186;28;20073;-61
2021/09/18 10:45:52;;;;;;;12.20;4.60;;;;;;;;;;5022404;28;20053;-61
2021/09/18 10:48:46;;;;;;;8.18;4.30;;;;;;;;;;5023472;28;20521;-61
2021/09/18 10:51:31;;;;;;;6.57;4.10;;;;;;;;;;5021989;28;20045;-61
2021/09/18 10:54:04;;;;;;;8.63;4.00;;;;;;;;;;5025464;28;20069;-61
2021/09/18 10:56:49;;;;;;;10.05;3.83;;;;;;;;;;5027541;28;20172;-61
2021/09/18 10:59:16;;;;;;;7.75;4.07;;;;;;;;;;5020716;28;20145;-61
2021/09/18 11:01:43;;;;;;;6.28;4.28;;;;;;;;;;5023480;28;20141;-61
2021/09/18 11:04:36;;;;;;;8.63;4.25;;;;;;;;;;5028351;28;20460;-61
2021/09/18 11:07:03;;;;;;;5.30;3.90;;;;;;;;;;5026582;28;20084;-61
2021/09/18 11:09:48;;;;;;;8.75;3.80;;;;;;;;;;5027632;28;20132;-62
2021/09/18 11:12:15;;;;;;;6.13;4.40;;;;;;;;;;5023496;28;20160;-61
2021/09/18 11:14:41;;;;;;;10.07;4.15;;;;;;;;;;5027324;28;20072;-61
2021/09/18 11:17:27;;;;;;;5.15;4.22;;;;;;;;;;5022982;28;20925;-61
2021/09/18 11:19:54;;;;;;;7.95;4.22;;;;;;;;;;5029638;28;20136;-61
2021/09/18 11:22:20;;;;;;;9.43;4.53;;;;;;;;;;5025767;28;20079;-61
2021/09/18 11:24:46;;;;;;;7.05;4.00;;;;;;;;;;5021221;28;20403;-61
2021/09/18 11:27:31;;;;;;;6.60;4.13;;;;;;;;;;5027255;28;20144;-61
2021/09/18 11:29:58;;;;;;;5.90;4.38;;;;;;;;;;5021015;28;20152;-61
2021/09/18 11:32:32;;;;;;;6.55;4.18;;;;;;;;;;5025079;28;20127;-61
2021/09/18 11:34:58;;;;;;;6.97;3.78;;;;;;;;;;5027700;28;20061;-62
2021/09/18 11:37:26;;;;;;;6.07;3.60;;;;;;;;;;5027496;28;20045;-62
2021/09/18 11:39:54;;;;;;;7.15;3.53;;;;;;;;;;5027477;28;20137;-61
2021/09/18 11:42:31;;;;;;;4.78;3.63;;;;;;;;;;5021756;28;20133;-62
2021/09/18 11:45:01;;;;;;;5.50;3.85;;;;;;;;;;5023803;28;20140;-62
2021/09/18 11:47:40;;;;;;;5.85;3.80;;;;;;;;;;5030611;28;20602;-62
2021/09/18 11:50:21;;;;;;;8.40;3.90;;;;;;;;;;5025948;28;20073;-62
2021/09/18 11:52:48;;;;;;;7.72;4.43;;;;;;;;;;5024702;28;20092;-62
2021/09/18 11:55:31;;;;;;;5.03;3.55;;;;;;;;;;5031650;28;20067;-62
2021/09/18 11:58:08;;;;;;;7.82;3.83;;;;;;;;;;5021001;28;20453;-62
2021/09/18 12:00:36;;;;;;;7.45;4.18;;;;;;;;;;5025132;28;20041;-62
2021/09/18 12:03:02;;;;;;;12.95;4.13;;;;;;;;;;5025404;28;20042;-61
2021/09/18 12:05:29;;;;;;;8.85;4.32;;;;;;;;;;5025889;28;20103;-61
2021/09/18 12:07:56;;;;;;;8.07;4.75;;;;;;;;;;5025784;28;20137;-62
2021/09/18 12:10:24;;;;;;;6.85;4.18;;;;;;;;;;5027430;28;20077;-62
2021/09/18 12:13:00;;;;;;;7.72;4.05;;;;;;;;;;5023509;28;20517;-62
2021/09/18 12:15:34;;;;;;;6.07;4.10;;;;;;;;;;5024479;28;20712;-62
2021/09/18 12:18:02;;;;;;;7.25;3.78;;;;;;;;;;5027119;28;20049;-62
2021/09/18 12:20:30;;;;;;;7.10;3.90;;;;;;;;;;5028092;28;20125;-62
2021/09/18 12:22:57;;;;;;;8.65;4.00;;;;;;;;;;5025112;28;20479;-61
2021/09/18 12:25:27;;;;;;;7.07;4.55;;;;;;;;;;5022984;28;20140;-61
2021/09/18 12:27:55;;;;;;;5.95;3.95;;;;;;;;;;5025117;28;20056;-61
2021/09/18 12:30:27;;;;;;;6.97;4.25;;;;;;;;;;5020819;28;20050;-61
2021/09/18 12:33:22;;;;;;;5.90;4.30;;;;;;;;;;5024781;28;20600;-61
2021/09/18 12:35:49;;;;;;;7.68;3.90;;;;;;;;;;5002434;28;20041;-61
2021/09/18 12:38:16;;;;;;;5.88;4.20;;;;;;;;;;5023602;28;20065;-61
2021/09/18 12:40:46;;;;;;;5.93;3.75;;;;;;;;;;5023888;28;20048;-61
2021/09/18 12:43:15;;;;;;;4.45;3.95;;;;;;;;;;5022858;28;20169;-61
2021/09/18 12:45:42;;;;;;;6.22;3.95;;;;;;;;;;5026590;28;20132;-61
2021/09/18 12:48:15;;;;;;;4.90;3.90;;;;;;;;;;5024703;28;20132;-61
2021/09/18 12:50:50;;;;;;;5.63;3.78;;;;;;;;;;5024480;28;20124;-61
2021/09/18 12:53:18;;;;;;;5.22;3.65;;;;;;;;;;5026922;28;20099;-61
2021/09/18 12:56:03;;;;;;;13.23;3.97;;;;;;;;;;5017521;28;20044;-61
2021/09/18 12:58:30;;;;;;;6.22;3.60;;;;;;;;;;5023941;28;20073;-62
2021/09/18 13:01:00;;;;;;;5.45;3.72;;;;;;;;;;5023313;28;20137;-61
2021/09/18 13:03:27;;;;;;;4.75;3.80;;;;;;;;;;5022146;28;20058;-61
2021/09/18 13:06:03;;;;;;;6.93;4.00;;;;;;;;;;5022148;28;20037;-61
2021/09/18 13:08:45;;;;;;;7.63;3.90;;;;;;;;;;5025893;28;20576;-61
2021/09/18 13:11:20;;;;;;;7.40;3.83;;;;;;;;;;5025119;28;20096;-61
2021/09/18 13:13:48;;;;;;;6.30;3.80;;;;;;;;;;5019791;28;20497;-61
2021/09/18 13:16:15;;;;;;;5.50;3.50;;;;;;;;;;5021004;28;20172;-61
2021/09/18 13:18:42;;;;;;;7.97;4.22;;;;;;;;;;5024800;28;20505;-61
2021/09/18 13:21:09;;;;;;;6.07;3.60;;;;;;;;;;5021757;28;20057;-61
2021/09/18 13:23:35;;;;;;;9.77;4.23;;;;;;;;;;5024232;28;20076;-61
2021/09/18 13:26:03;;;;;;;5.03;3.80;;;;;;;;;;5024886;28;20446;-61
2021/09/18 13:28:30;;;;;;;4.72;3.65;;;;;;;;;;5023781;28;20081;-61
2021/09/18 13:30:57;;;;;;;6.03;3.43;;;;;;;;;;5026570;28;20132;-61
2021/09/18 13:33:23;;;;;;;6.03;3.47;;;;;;;;;;5022370;28;20140;-61
2021/09/18 13:35:50;;;;;;;4.37;3.40;;;;;;;;;;5027180;28;20087;-61
2021/09/18 13:38:16;;;;;;;5.57;3.65;;;;;;;;;;5026269;28;20363;-61
2021/09/18 13:40:43;;;;;;;6.32;3.25;;;;;;;;;;5026448;28;20132;-61
2021/09/18 13:43:10;;;;;;;7.05;3.80;;;;;;;;;;5021034;28;20133;-61
2021/09/18 13:45:36;;;;;;;5.53;3.70;;;;;;;;;;5029923;28;20081;-61
2021/09/18 13:48:03;;;;;;;5.72;3.75;;;;;;;;;;5025354;28;20427;-61
2021/09/18 13:50:29;;;;;;;3.97;3.17;;;;;;;;;;5020726;28;20042;-61
2021/09/18 13:52:55;;;;;;;6.97;4.10;;;;;;;;;;5019935;28;20140;-61
2021/09/18 13:55:22;;;;;;;5.72;4.00;;;;;;;;;;5026351;28;20141;-61
2021/09/18 13:57:49;;;;;;;4.82;3.33;;;;;;;;;;5026858;28;20124;-61
2021/09/18 14:00:16;;;;;;;5.28;3.67;;;;;;;;;;5022408;28;20076;-61
2021/09/18 14:02:42;;;;;;;5.10;3.40;;;;;;;;;;5021818;28;20124;-61
2021/09/18 14:05:10;;;;;;;5.78;3.35;;;;;;;;;;5021546;28;20139;-61
2021/09/18 14:07:37;;;;;;;3.80;3.15;;;;;;;;;;5019088;28;20793;-62
2021/09/18 14:10:05;;;;;;;4.82;3.22;;;;;;;;;;5018874;28;20631;-61
2021/09/18 14:12:31;;;;;;;9.43;3.85;;;;;;;;;;5019667;28;20140;-61
2021/09/18 14:14:58;;;;;;;4.65;3.58;;;;;;;;;;5026470;28;20719;-61
2021/09/18 14:17:24;;;;;;;4.70;3.40;;;;;;;;;;5025682;28;20128;-61
2021/09/18 14:19:51;;;;;;;4.30;3.17;;;;;;;;;;5023087;28;20079;-61
2021/09/18 14:22:18;;;;;;;4.80;3.95;;;;;;;;;;5018004;28;20136;-61
2021/09/18 14:24:44;;;;;;;5.75;3.75;;;;;;;;;;5019948;28;20084;-61
2021/09/18 14:27:11;;;;;;;5.25;3.70;;;;;;;;;;5007200;28;20045;-61
2021/09/18 14:29:37;;;;;;;5.93;3.53;;;;;;;;;;5022547;28;20527;-61
2021/09/18 14:32:04;;;;;;;5.00;3.42;;;;;;;;;;5019990;28;20053;-61
2021/09/18 14:34:31;;;;;;;5.47;3.35;;;;;;;;;;5020118;28;20128;-61
2021/09/18 14:36:58;;;;;;;6.53;3.55;;;;;;;;;;5019575;28;20068;-61
2021/09/18 14:39:24;;;;;;;7.63;3.50;;;;;;;;;;5019676;28;20073;-61
2021/09/18 14:41:51;;;;;;;4.32;3.33;;;;;;;;;;5025719;28;20136;-61
2021/09/18 14:44:18;;;;;;;5.95;3.40;;;;;;;;;;5025951;28;20056;-61
2021/09/18 14:46:44;;;;;;;6.07;3.67;;;;;;;;;;5024792;28;20073;-61
2021/09/18 14:49:11;;;;;;;4.93;3.10;;;;;;;;;;5021014;28;20133;-61
2021/09/18 14:51:37;;;;;;;3.95;3.10;;;;;;;;;;5022721;28;20133;-61